createdAt,value
2017-07-31T00:01:13.964Z,23.25
2017-07-31T00:03:41.474Z,23.25
2017-07-31T00:06:08.967Z,23.29
2017-07-31T00:08:36.434Z,23.28
2017-07-31T00:11:03.925Z,23.29
2017-07-31T00:13:31.386Z,23.21
2017-07-31T00:15:58.891Z,23.18
2017-07-31T00:18:26.357Z,23.04
2017-07-31T00:20:53.953Z,22.99
2017-07-31T00:23:21.784Z,23.00
2017-07-31T00:25:49.244Z,23.00
2017-07-31T00:28:16.740Z,23.03
2017-07-31T00:30:44.218Z,23.09
2017-07-31T00:33:11.779Z,22.90
2017-07-31T00:35:39.236Z,22.89
2017-07-31T00:38:06.716Z,22.82
2017-07-31T00:40:34.454Z,22.81
2017-07-31T00:43:01.959Z,22.82
2017-07-31T00:45:29.427Z,22.76
2017-07-31T00:47:56.935Z,22.67
2017-07-31T00:50:24.392Z,22.63
2017-07-31T00:52:52.109Z,22.63
2017-07-31T00:55:19.586Z,22.61
2017-07-31T00:57:47.056Z,22.64
2017-07-31T01:00:14.533Z,22.63
2017-07-31T01:02:41.979Z,22.66
2017-07-31T01:05:09.471Z,22.56
2017-07-31T01:07:36.926Z,22.49
2017-07-31T01:10:04.422Z,22.31
2017-07-31T01:12:31.919Z,22.23
2017-07-31T01:14:59.363Z,22.27
2017-07-31T01:17:26.858Z,22.33
2017-07-31T01:19:54.342Z,22.32
2017-07-31T01:22:21.863Z,22.28
2017-07-31T01:24:49.330Z,22.25
2017-07-31T01:27:16.815Z,22.10
2017-07-31T01:29:44.320Z,22.04
2017-07-31T01:32:11.800Z,21.87
2017-07-31T01:34:39.273Z,22.02
2017-07-31T01:37:06.794Z,21.96
2017-07-31T01:39:34.293Z,21.97
2017-07-31T01:42:01.788Z,21.97
2017-07-31T01:44:29.272Z,21.95
2017-07-31T01:46:56.733Z,21.91
2017-07-31T01:49:24.226Z,21.84
2017-07-31T01:51:51.693Z,21.81
2017-07-31T01:54:19.205Z,21.84
2017-07-31T01:56:46.718Z,21.77
2017-07-31T01:59:14.210Z,21.75
2017-07-31T02:01:41.696Z,21.71
2017-07-31T02:04:10.235Z,21.77
2017-07-31T02:06:37.718Z,21.68
2017-07-31T02:09:05.182Z,21.62
2017-07-31T02:11:32.669Z,21.50
2017-07-31T02:14:00.124Z,21.51
2017-07-31T02:16:27.646Z,21.51
2017-07-31T02:18:55.111Z,21.33
2017-07-31T02:21:22.599Z,21.25
2017-07-31T02:23:50.050Z,21.34
2017-07-31T02:26:17.548Z,21.40
2017-07-31T02:28:45.046Z,21.44
2017-07-31T02:31:12.527Z,21.46
2017-07-31T02:33:40.022Z,21.45
2017-07-31T02:36:07.497Z,21.40
2017-07-31T02:38:34.994Z,21.49
2017-07-31T02:41:02.468Z,21.49
2017-07-31T02:43:29.974Z,21.43
2017-07-31T02:45:57.445Z,21.42
2017-07-31T02:48:24.953Z,21.40
2017-07-31T02:50:52.436Z,21.31
2017-07-31T02:53:19.940Z,21.31
2017-07-31T02:55:47.402Z,21.33
2017-07-31T02:58:14.999Z,21.32
2017-07-31T03:00:42.454Z,21.29
2017-07-31T03:03:09.911Z,21.29
2017-07-31T03:05:37.403Z,21.22
2017-07-31T03:08:04.886Z,21.21
2017-07-31T03:10:32.448Z,21.22
2017-07-31T03:12:59.948Z,21.16
2017-07-31T03:15:27.438Z,21.22
2017-07-31T03:17:54.902Z,21.25
2017-07-31T03:20:22.414Z,21.24
2017-07-31T03:22:49.885Z,21.21
2017-07-31T03:25:17.372Z,21.16
2017-07-31T03:27:44.855Z,21.23
2017-07-31T03:30:12.319Z,21.14
2017-07-31T03:32:39.809Z,21.08
2017-07-31T03:35:07.258Z,21.02
2017-07-31T03:37:34.751Z,20.98
2017-07-31T03:40:02.233Z,20.98
2017-07-31T03:42:29.745Z,20.98
2017-07-31T03:44:57.208Z,20.95
2017-07-31T03:47:25.134Z,20.92
2017-07-31T03:49:52.611Z,20.78
2017-07-31T03:52:20.214Z,20.53
2017-07-31T03:54:47.725Z,20.40
2017-07-31T03:57:15.209Z,20.42
2017-07-31T03:59:42.688Z,20.38
2017-07-31T04:02:10.156Z,20.45
2017-07-31T04:04:37.692Z,20.56
2017-07-31T04:07:05.177Z,20.54
2017-07-31T04:09:32.686Z,20.59
2017-07-31T04:12:00.181Z,20.72
2017-07-31T04:14:27.653Z,20.72
2017-07-31T04:16:55.148Z,20.46
2017-07-31T04:19:22.619Z,20.46
2017-07-31T04:21:50.122Z,20.58
2017-07-31T04:24:17.577Z,20.58
2017-07-31T04:26:45.083Z,20.65
2017-07-31T04:29:12.548Z,20.75
2017-07-31T04:31:40.049Z,20.78
2017-07-31T04:34:07.506Z,20.81
2017-07-31T04:36:35.008Z,20.77
2017-07-31T04:39:02.473Z,20.76
2017-07-31T04:41:29.982Z,20.69
2017-07-31T04:43:57.533Z,20.73
2017-07-31T04:46:25.198Z,20.67
2017-07-31T04:48:52.707Z,20.64
2017-07-31T04:51:20.999Z,20.71
2017-07-31T04:53:48.503Z,20.80
2017-07-31T04:56:15.994Z,20.81
2017-07-31T04:58:43.520Z,20.78
2017-07-31T05:01:10.983Z,20.78
2017-07-31T05:03:38.493Z,20.77
2017-07-31T05:06:05.985Z,20.73
2017-07-31T05:08:33.448Z,20.76
2017-07-31T05:11:00.944Z,20.71
2017-07-31T05:13:29.129Z,20.79
2017-07-31T05:15:56.628Z,20.86
2017-07-31T05:18:24.111Z,20.85
2017-07-31T05:20:51.605Z,20.90
2017-07-31T05:23:19.066Z,20.94
2017-07-31T05:25:46.592Z,20.90
2017-07-31T05:28:14.103Z,20.98
2017-07-31T05:30:41.614Z,20.91
2017-07-31T05:33:09.080Z,20.94
2017-07-31T05:35:36.565Z,21.00
2017-07-31T05:38:04.052Z,21.02
2017-07-31T05:40:31.516Z,21.14
2017-07-31T05:42:59.010Z,21.19
2017-07-31T05:45:26.467Z,21.23
2017-07-31T05:47:53.959Z,21.30
2017-07-31T05:50:21.450Z,21.32
2017-07-31T05:52:49.279Z,21.40
2017-07-31T05:55:16.797Z,21.47
2017-07-31T05:57:44.262Z,21.66
2017-07-31T06:00:11.755Z,21.66
2017-07-31T06:02:40.217Z,21.71
2017-07-31T06:05:07.713Z,21.78
2017-07-31T06:07:35.218Z,21.86
2017-07-31T06:10:02.699Z,21.98
2017-07-31T06:12:30.157Z,22.11
2017-07-31T06:14:57.651Z,22.30
2017-07-31T06:17:26.195Z,22.41
2017-07-31T06:19:53.653Z,22.51
2017-07-31T06:22:21.152Z,22.60
2017-07-31T06:24:48.629Z,22.75
2017-07-31T06:27:16.125Z,22.92
2017-07-31T06:29:43.581Z,22.90
2017-07-31T06:32:11.063Z,22.87
2017-07-31T06:34:38.878Z,23.02
2017-07-31T06:37:06.366Z,23.05
2017-07-31T06:39:33.869Z,23.09
2017-07-31T06:42:01.351Z,23.26
2017-07-31T06:44:28.842Z,23.33
2017-07-31T06:46:56.359Z,23.44
2017-07-31T06:49:23.929Z,23.61
2017-07-31T06:51:51.404Z,23.69
2017-07-31T06:54:18.904Z,23.70
2017-07-31T06:56:46.367Z,23.67
2017-07-31T06:59:13.933Z,23.73
2017-07-31T07:01:41.404Z,23.82
2017-07-31T07:04:08.923Z,23.91
2017-07-31T07:06:36.418Z,23.88
2017-07-31T07:09:03.927Z,23.90
2017-07-31T07:11:31.444Z,24.00
2017-07-31T07:13:58.897Z,24.03
2017-07-31T07:16:26.478Z,24.14
2017-07-31T07:18:54.005Z,24.18
2017-07-31T07:21:21.507Z,24.24
2017-07-31T07:23:48.993Z,24.35
2017-07-31T07:26:17.365Z,24.33
2017-07-31T07:28:45.734Z,24.45
2017-07-31T07:31:13.192Z,24.62
2017-07-31T07:33:40.733Z,24.74
2017-07-31T07:36:08.183Z,24.82
2017-07-31T07:38:35.670Z,24.88
2017-07-31T07:41:03.250Z,24.92
2017-07-31T07:43:30.765Z,24.99
2017-07-31T07:45:58.213Z,25.01
2017-07-31T07:48:25.858Z,25.25
2017-07-31T07:50:53.347Z,25.31
2017-07-31T07:53:20.830Z,25.28
2017-07-31T07:55:48.342Z,25.16
2017-07-31T07:58:15.823Z,25.28
2017-07-31T08:00:43.374Z,25.31
2017-07-31T08:03:10.825Z,25.33
2017-07-31T08:05:38.347Z,25.34
2017-07-31T08:08:06.775Z,25.36
2017-07-31T08:10:34.425Z,25.49
2017-07-31T08:13:01.884Z,25.59
2017-07-31T08:15:29.340Z,25.70
2017-07-31T08:17:56.874Z,25.73
2017-07-31T08:20:24.384Z,25.62
2017-07-31T08:22:51.882Z,25.67
2017-07-31T08:25:19.540Z,25.70
2017-07-31T08:27:47.003Z,25.84
2017-07-31T08:30:14.744Z,25.82
2017-07-31T08:32:42.709Z,25.89
2017-07-31T08:35:10.804Z,25.85
2017-07-31T08:37:38.310Z,25.94
2017-07-31T08:40:05.822Z,26.04
2017-07-31T08:42:34.002Z,26.12
2017-07-31T08:45:01.485Z,26.12
2017-07-31T08:47:29.031Z,26.12
2017-07-31T08:49:57.110Z,26.39
2017-07-31T08:52:24.850Z,26.52
2017-07-31T08:54:52.511Z,26.61
2017-07-31T08:57:19.965Z,26.72
2017-07-31T08:59:47.434Z,26.62
2017-07-31T09:02:15.014Z,26.62
2017-07-31T09:04:42.476Z,26.60
2017-07-31T09:07:09.991Z,26.53
2017-07-31T09:09:37.475Z,26.53
2017-07-31T09:12:05.031Z,26.56
2017-07-31T09:14:32.506Z,26.63
2017-07-31T09:17:00.373Z,26.80
2017-07-31T09:19:27.921Z,26.77
2017-07-31T09:21:55.643Z,26.82
2017-07-31T09:24:23.181Z,26.94
2017-07-31T09:26:50.696Z,27.02
2017-07-31T09:29:18.182Z,27.25
2017-07-31T09:31:46.693Z,27.32
2017-07-31T09:34:14.881Z,27.34
2017-07-31T09:36:42.358Z,27.53
2017-07-31T09:39:09.875Z,27.54
2017-07-31T09:41:37.370Z,27.41
2017-07-31T09:44:05.013Z,27.48
2017-07-31T09:46:32.549Z,27.48
2017-07-31T09:49:00.026Z,27.68
2017-07-31T09:51:28.339Z,27.97
2017-07-31T09:53:55.830Z,27.87
2017-07-31T09:56:23.331Z,27.93
2017-07-31T09:58:50.798Z,27.93
2017-07-31T10:01:18.314Z,27.83
2017-07-31T10:03:46.358Z,27.95
2017-07-31T10:06:14.186Z,27.97
2017-07-31T10:08:42.021Z,27.98
2017-07-31T10:11:09.501Z,28.08
2017-07-31T10:13:37.017Z,28.08
2017-07-31T10:16:04.499Z,28.18
2017-07-31T10:18:32.066Z,28.04
2017-07-31T10:20:59.547Z,28.06
2017-07-31T10:23:27.430Z,27.86
2017-07-31T10:25:54.922Z,28.02
2017-07-31T10:28:22.424Z,27.97
2017-07-31T10:30:50.699Z,28.01
2017-07-31T10:33:18.172Z,27.88
2017-07-31T10:35:45.771Z,27.98
2017-07-31T10:38:13.221Z,28.21
2017-07-31T10:40:40.721Z,28.31
2017-07-31T10:43:08.183Z,28.30
2017-07-31T10:45:35.807Z,28.35
2017-07-31T10:48:03.264Z,28.47
2017-07-31T10:50:31.217Z,28.41
2017-07-31T10:52:58.693Z,28.50
2017-07-31T10:55:26.143Z,28.37
2017-07-31T10:57:54.361Z,28.41
2017-07-31T11:00:21.808Z,28.45
2017-07-31T11:02:49.299Z,28.47
2017-07-31T11:05:16.755Z,28.42
2017-07-31T11:07:44.345Z,28.29
2017-07-31T11:10:11.838Z,28.24
2017-07-31T11:12:40.047Z,28.11
2017-07-31T11:15:07.839Z,28.01
2017-07-31T11:17:35.288Z,28.02
2017-07-31T11:20:03.965Z,27.90
2017-07-31T11:22:31.949Z,27.83
2017-07-31T11:24:59.473Z,27.79
2017-07-31T11:27:26.937Z,27.69
2017-07-31T11:29:54.483Z,27.83
2017-07-31T11:32:21.958Z,27.79
2017-07-31T11:34:49.641Z,27.73
2017-07-31T11:37:17.144Z,27.71
2017-07-31T11:39:44.594Z,27.91
2017-07-31T11:42:12.080Z,28.07
2017-07-31T11:44:39.542Z,27.90
2017-07-31T11:47:07.048Z,27.89
2017-07-31T11:49:34.542Z,27.92
2017-07-31T11:52:03.356Z,28.02
2017-07-31T11:54:30.831Z,28.16
2017-07-31T11:56:58.300Z,28.35
2017-07-31T11:59:26.351Z,28.51
2017-07-31T12:01:53.852Z,28.48
2017-07-31T12:04:21.313Z,28.44
2017-07-31T12:06:49.139Z,28.38
2017-07-31T12:09:16.646Z,28.29
2017-07-31T12:11:44.106Z,28.45
2017-07-31T12:14:11.590Z,28.31
2017-07-31T12:16:39.064Z,28.31
2017-07-31T12:19:06.630Z,28.65
2017-07-31T12:21:34.156Z,28.94
2017-07-31T12:24:01.610Z,29.01
2017-07-31T12:26:29.100Z,29.13
2017-07-31T12:28:56.551Z,29.03
2017-07-31T12:31:24.423Z,29.13
2017-07-31T12:33:51.932Z,28.95
2017-07-31T12:36:19.406Z,28.88
2017-07-31T12:38:46.951Z,28.94
2017-07-31T12:41:14.508Z,28.93
2017-07-31T12:43:41.997Z,28.77
2017-07-31T12:46:09.453Z,28.50
2017-07-31T12:48:36.948Z,28.56
2017-07-31T12:51:04.790Z,28.90
2017-07-31T12:53:32.352Z,29.00
2017-07-31T12:55:59.848Z,29.16
2017-07-31T12:58:27.323Z,29.35
2017-07-31T13:00:55.818Z,29.77
2017-07-31T13:03:23.360Z,30.13
2017-07-31T13:05:50.905Z,30.28
2017-07-31T13:08:18.416Z,30.14
2017-07-31T13:10:45.916Z,29.81
2017-07-31T13:13:13.382Z,29.79
2017-07-31T13:15:41.046Z,29.44
2017-07-31T13:18:08.524Z,29.44
2017-07-31T13:20:36.749Z,29.42
2017-07-31T13:23:04.303Z,29.46
2017-07-31T13:25:31.760Z,29.47
2017-07-31T13:27:59.271Z,29.64
2017-07-31T13:30:26.743Z,29.74
2017-07-31T13:32:54.215Z,29.98
2017-07-31T13:35:21.881Z,30.06
2017-07-31T13:37:49.512Z,30.04
2017-07-31T13:40:17.699Z,29.85
2017-07-31T13:42:45.225Z,29.61
2017-07-31T13:45:12.710Z,29.37
2017-07-31T13:47:40.196Z,29.29
2017-07-31T13:50:07.787Z,29.09
2017-07-31T13:52:35.294Z,28.94
2017-07-31T13:55:02.802Z,29.01
2017-07-31T13:57:30.322Z,28.85
2017-07-31T13:59:59.495Z,28.74
2017-07-31T14:02:26.994Z,28.64
2017-07-31T14:04:54.577Z,28.74
2017-07-31T14:07:22.147Z,28.59
2017-07-31T14:09:51.835Z,28.27
2017-07-31T14:12:19.953Z,28.22
2017-07-31T14:14:47.433Z,28.02
2017-07-31T14:17:15.178Z,27.99
2017-07-31T14:19:42.634Z,27.81
2017-07-31T14:22:10.110Z,27.84
2017-07-31T14:24:38.041Z,27.80
2017-07-31T14:27:05.553Z,27.88
2017-07-31T14:29:33.090Z,27.76
2017-07-31T14:32:01.125Z,27.63
2017-07-31T14:34:28.764Z,27.64
2017-07-31T14:36:56.221Z,27.82
2017-07-31T14:39:23.797Z,27.88
2017-07-31T14:41:51.287Z,27.58
2017-07-31T14:44:18.750Z,27.47
2017-07-31T14:46:46.278Z,27.30
2017-07-31T14:49:13.751Z,27.28
2017-07-31T14:51:41.309Z,27.34
2017-07-31T14:54:09.616Z,27.32
2017-07-31T14:56:37.114Z,27.40
2017-07-31T14:59:04.594Z,27.49
2017-07-31T15:01:32.121Z,27.61
2017-07-31T15:03:59.621Z,28.20
2017-07-31T15:06:27.129Z,28.66
2017-07-31T15:08:54.709Z,29.42
2017-07-31T15:11:22.190Z,30.13
2017-07-31T15:13:50.109Z,30.71
2017-07-31T15:16:17.595Z,31.20
2017-07-31T15:18:45.112Z,31.46
2017-07-31T15:21:12.571Z,31.32
2017-07-31T15:23:40.598Z,31.26
2017-07-31T15:26:08.138Z,31.50
2017-07-31T15:28:37.362Z,31.75
2017-07-31T15:31:05.490Z,31.87
2017-07-31T15:33:32.990Z,31.96
2017-07-31T15:36:00.454Z,32.04
2017-07-31T15:38:27.979Z,32.28
2017-07-31T15:40:55.496Z,32.51
2017-07-31T15:43:23.794Z,32.76
2017-07-31T15:45:51.340Z,32.48
2017-07-31T15:48:18.837Z,32.65
2017-07-31T15:50:46.316Z,32.40
2017-07-31T15:53:15.070Z,32.24
2017-07-31T15:55:42.552Z,31.94
2017-07-31T15:58:10.323Z,32.10
2017-07-31T16:00:37.818Z,31.90
2017-07-31T16:03:05.313Z,32.01
2017-07-31T16:05:33.170Z,32.13
2017-07-31T16:08:00.636Z,32.19
2017-07-31T16:10:28.157Z,32.33
2017-07-31T16:12:55.635Z,32.19
2017-07-31T16:15:23.431Z,32.32
2017-07-31T16:17:50.920Z,31.90
2017-07-31T16:20:18.374Z,31.56
2017-07-31T16:22:45.883Z,31.92
2017-07-31T16:25:13.347Z,32.02
2017-07-31T16:27:40.813Z,31.24
2017-07-31T16:30:08.301Z,30.62
2017-07-31T16:32:36.156Z,30.57
2017-07-31T16:35:03.621Z,30.61
2017-07-31T16:37:36.022Z,30.47
2017-07-31T16:40:26.679Z,30.73
2017-07-31T16:43:05.741Z,31.00
2017-07-31T16:45:39.971Z,31.23
2017-07-31T16:48:19.335Z,31.11
2017-07-31T16:50:46.849Z,31.03
2017-07-31T16:53:14.986Z,30.86
2017-07-31T16:55:42.522Z,31.14
2017-07-31T16:58:09.982Z,31.44
2017-07-31T17:00:38.215Z,31.52
2017-07-31T17:03:07.151Z,31.66
2017-07-31T17:05:34.711Z,31.57
2017-07-31T17:08:02.202Z,31.07
2017-07-31T17:10:29.732Z,31.08
2017-07-31T17:12:57.274Z,31.04
2017-07-31T17:15:25.158Z,30.83
2017-07-31T17:17:52.770Z,30.64
2017-07-31T17:20:20.257Z,30.63
2017-07-31T17:22:47.761Z,30.53
2017-07-31T17:25:15.223Z,30.54
2017-07-31T17:27:42.737Z,30.60
2017-07-31T17:30:10.180Z,30.39
2017-07-31T17:32:37.912Z,30.20
2017-07-31T17:35:05.395Z,30.30
2017-07-31T17:37:32.893Z,30.41
2017-07-31T17:40:00.376Z,30.43
2017-07-31T17:42:27.909Z,30.37
2017-07-31T17:44:55.451Z,30.40
2017-07-31T17:47:22.930Z,30.25
2017-07-31T17:49:50.676Z,30.17
2017-07-31T17:52:18.160Z,29.92
2017-07-31T17:54:45.660Z,29.80
2017-07-31T17:57:13.207Z,29.61
2017-07-31T17:59:40.699Z,29.47
2017-07-31T18:02:08.151Z,29.34
2017-07-31T18:04:35.648Z,29.40
2017-07-31T18:07:03.197Z,29.40
2017-07-31T18:09:30.643Z,29.53
2017-07-31T18:11:58.170Z,29.27
2017-07-31T18:14:25.643Z,29.27
2017-07-31T18:16:53.121Z,29.18
2017-07-31T18:19:20.601Z,29.31
2017-07-31T18:21:48.076Z,29.32
2017-07-31T18:24:15.584Z,29.30
2017-07-31T18:26:43.089Z,29.27
2017-07-31T18:29:10.719Z,29.05
2017-07-31T18:31:38.278Z,28.74
2017-07-31T18:34:05.793Z,28.72
2017-07-31T18:36:33.255Z,28.70
2017-07-31T18:39:00.751Z,28.69
2017-07-31T18:41:28.284Z,28.62
2017-07-31T18:43:56.014Z,28.57
2017-07-31T18:46:23.498Z,28.65
2017-07-31T18:48:50.963Z,28.53
2017-07-31T18:51:18.472Z,28.41
2017-07-31T18:53:45.937Z,28.20
2017-07-31T18:56:13.489Z,28.18
2017-07-31T18:58:40.983Z,28.24
2017-07-31T19:01:08.595Z,28.41
2017-07-31T19:03:36.104Z,28.59
2017-07-31T19:06:03.629Z,28.60
2017-07-31T19:08:31.086Z,28.43
2017-07-31T19:10:58.589Z,28.47
2017-07-31T19:13:26.087Z,28.42
2017-07-31T19:15:53.558Z,28.38
2017-07-31T19:18:21.892Z,28.29
2017-07-31T19:20:49.456Z,28.20
2017-07-31T19:23:17.137Z,28.15
2017-07-31T19:25:44.591Z,28.00
2017-07-31T19:28:12.114Z,27.89
2017-07-31T19:30:39.609Z,27.81
2017-07-31T19:33:07.068Z,27.64
2017-07-31T19:35:34.711Z,27.50
2017-07-31T19:38:02.270Z,27.31
2017-07-31T19:40:29.766Z,27.15
2017-07-31T19:42:57.257Z,26.98
2017-07-31T19:45:25.465Z,27.00
2017-07-31T19:47:53.056Z,27.04
2017-07-31T19:50:20.512Z,27.01
2017-07-31T19:52:48.030Z,26.80
2017-07-31T19:55:15.500Z,26.70
2017-07-31T19:57:43.014Z,26.66
2017-07-31T20:00:10.555Z,26.59
2017-07-31T20:02:38.092Z,26.44
2017-07-31T20:05:05.651Z,26.38
2017-07-31T20:07:33.145Z,26.42
2017-07-31T20:10:00.710Z,26.35
2017-07-31T20:12:28.170Z,26.40
2017-07-31T20:14:55.682Z,26.34
2017-07-31T20:17:23.138Z,26.27
2017-07-31T20:19:50.642Z,26.19
2017-07-31T20:22:18.104Z,26.23
2017-07-31T20:24:45.692Z,26.19
2017-07-31T20:27:13.159Z,26.10
2017-07-31T20:29:40.680Z,26.09
2017-07-31T20:32:09.381Z,26.10
2017-07-31T20:34:36.909Z,26.18
2017-07-31T20:37:04.371Z,26.21
2017-07-31T20:39:32.036Z,26.01
2017-07-31T20:41:59.707Z,25.83
2017-07-31T20:44:27.187Z,25.83
2017-07-31T20:46:54.657Z,25.77
2017-07-31T20:49:22.263Z,25.71
2017-07-31T20:51:49.847Z,25.62
2017-07-31T20:54:17.349Z,25.54
2017-07-31T20:56:44.951Z,25.34
2017-07-31T20:59:12.410Z,25.14
2017-07-31T21:01:39.895Z,25.10
2017-07-31T21:04:07.389Z,25.07
2017-07-31T21:06:34.886Z,25.24
2017-07-31T21:09:02.380Z,25.29
2017-07-31T21:11:29.900Z,25.38
2017-07-31T21:13:57.404Z,25.34
2017-07-31T21:16:24.927Z,25.30
2017-07-31T21:18:52.562Z,25.30
2017-07-31T21:21:20.028Z,25.27
2017-07-31T21:23:47.570Z,25.29
2017-07-31T21:26:15.094Z,25.29
2017-07-31T21:28:42.615Z,25.27
2017-07-31T21:31:10.259Z,25.23
2017-07-31T21:33:37.745Z,25.09
2017-07-31T21:36:05.310Z,24.96
2017-07-31T21:38:32.825Z,25.02
2017-07-31T21:41:01.067Z,25.01
2017-07-31T21:43:28.535Z,25.06
2017-07-31T21:45:56.043Z,24.93
2017-07-31T21:48:23.516Z,25.02
2017-07-31T21:50:51.011Z,25.00
2017-07-31T21:53:18.592Z,25.01
2017-07-31T21:55:46.056Z,24.98
2017-07-31T21:58:13.705Z,24.96
2017-07-31T22:00:41.176Z,24.91
2017-07-31T22:03:08.656Z,24.99
2017-07-31T22:05:36.161Z,24.91
2017-07-31T22:08:03.637Z,24.78
2017-07-31T22:10:31.141Z,24.79
2017-07-31T22:12:58.672Z,24.80
2017-07-31T22:15:26.147Z,24.80
2017-07-31T22:17:59.241Z,24.77
2017-07-31T22:20:32.324Z,24.69
2017-07-31T22:22:59.824Z,24.64
2017-07-31T22:25:27.329Z,24.42
2017-07-31T22:27:54.793Z,24.20
2017-07-31T22:30:22.339Z,24.15
2017-07-31T22:32:51.222Z,24.22
2017-07-31T22:35:18.697Z,24.25
2017-07-31T22:37:46.169Z,24.18
2017-07-31T22:40:14.826Z,24.05
2017-07-31T22:42:42.296Z,23.99
2017-07-31T22:45:09.762Z,23.83
2017-07-31T22:47:37.544Z,23.91
2017-07-31T22:50:05.017Z,23.94
2017-07-31T22:52:32.475Z,24.06
2017-07-31T22:55:00.142Z,24.09
2017-07-31T22:57:27.596Z,24.02
2017-07-31T22:59:55.051Z,24.13
2017-07-31T23:02:22.563Z,24.19
2017-07-31T23:04:50.038Z,24.22
2017-07-31T23:07:17.596Z,24.25
2017-07-31T23:09:45.090Z,24.28
2017-07-31T23:12:12.568Z,24.31
2017-07-31T23:14:40.352Z,24.30
2017-07-31T23:17:07.826Z,24.27
2017-07-31T23:19:36.124Z,24.29
2017-07-31T23:22:03.583Z,24.26
2017-07-31T23:24:31.076Z,24.28
2017-07-31T23:26:58.596Z,24.30
2017-07-31T23:29:26.445Z,24.27
2017-07-31T23:31:54.020Z,24.23
2017-07-31T23:34:21.478Z,24.17
2017-07-31T23:36:48.950Z,24.15
2017-07-31T23:39:16.389Z,24.11
2017-07-31T23:41:43.881Z,24.00
2017-07-31T23:44:11.343Z,24.00
2017-07-31T23:46:38.836Z,23.93
2017-07-31T23:49:06.316Z,23.98
2017-07-31T23:51:34.085Z,24.00
2017-07-31T23:54:01.590Z,23.87
2017-07-31T23:56:29.042Z,23.92
2017-07-31T23:58:56.573Z,23.92
